Time;durP1;ratioP1;P1;durP2;ratioP2;P2;SDS_P1;SDS_P2;PMS_P1;PMS_P2;Temp;Humidity;BMP_temperature;BMP_pressure;BME280_temperature;BME280_humidity;BME280_pressure;Samples;Min_cycle;Max_cycle;Signal;HPM_P1;HPM_P2
2023/03/29 00:01:35;;;;;;;5.38;3.08;;;;;;;;;;5024157;28;20125;-77
2023/03/29 00:04:02;;;;;;;6.03;3.30;;;;;;;;;;5013397;28;20046;-78
2023/03/29 00:06:31;;;;;;;4.55;2.70;;;;;;;;;;5021165;28;20531;-78
2023/03/29 00:09:04;;;;;;;5.00;2.67;;;;;;;;;;5035946;28;20095;-78
2023/03/29 00:11:30;;;;;;;5.25;2.65;;;;;;;;;;5028610;28;20497;-78
2023/03/29 00:13:57;;;;;;;6.05;2.83;;;;;;;;;;5018264;28;20084;-77
2023/03/29 00:16:24;;;;;;;4.28;2.40;;;;;;;;;;5027959;28;20084;-77
2023/03/29 00:18:50;;;;;;;7.03;3.38;;;;;;;;;;5016733;28;20100;-78
2023/03/29 00:21:17;;;;;;;6.30;3.55;;;;;;;;;;5022614;28;20140;-78
2023/03/29 00:23:44;;;;;;;6.35;3.10;;;;;;;;;;5015945;28;20138;-78
2023/03/29 00:26:12;;;;;;;5.63;2.97;;;;;;;;;;5029723;28;20507;-78
2023/03/29 00:28:39;;;;;;;8.23;3.40;;;;;;;;;;5036039;28;20090;-78
2023/03/29 00:31:08;;;;;;;5.63;3.03;;;;;;;;;;5023903;28;20108;-79
2023/03/29 00:33:35;;;;;;;6.07;2.97;;;;;;;;;;5016449;28;20050;-78
2023/03/29 00:36:02;;;;;;;7.35;3.13;;;;;;;;;;5017613;28;20081;-79
2023/03/29 00:38:29;;;;;;;5.13;2.90;;;;;;;;;;5021492;28;20049;-78
2023/03/29 00:40:56;;;;;;;6.15;3.10;;;;;;;;;;5035680;28;20069;-78
2023/03/29 00:43:24;;;;;;;5.35;2.95;;;;;;;;;;5031670;28;20049;-77
2023/03/29 00:45:51;;;;;;;5.22;2.60;;;;;;;;;;5015920;28;20058;-79
2023/03/29 00:48:21;;;;;;;5.40;2.55;;;;;;;;;;5019509;28;20140;-78
2023/03/29 00:50:51;;;;;;;6.57;2.70;;;;;;;;;;5023737;28;20072;-79
2023/03/29 00:53:21;;;;;;;5.43;2.95;;;;;;;;;;5033670;28;20140;-78
2023/03/29 00:55:52;;;;;;;4.07;2.00;;;;;;;;;;5021687;28;20077;-78
2023/03/29 00:58:27;;;;;;;4.47;2.25;;;;;;;;;;5018386;28;20061;-78
2023/03/29 01:01:00;;;;;;;4.25;1.90;;;;;;;;;;5035947;28;20146;-79
2023/03/29 01:03:31;;;;;;;3.95;1.77;;;;;;;;;;5026217;28;20662;-79
2023/03/29 01:06:00;;;;;;;;;;;;;;;;;;5016707;28;20081;-78
2023/03/29 01:08:32;;;;;;;2.58;1.35;;;;;;;;;;5023913;28;19974;-79
2023/03/29 01:11:03;;;;;;;4.05;1.60;;;;;;;;;;5035756;28;20128;-79
2023/03/29 01:13:38;;;;;;;2.13;1.27;;;;;;;;;;5027202;28;20050;-79
2023/03/29 01:16:10;;;;;;;3.45;2.13;;;;;;;;;;5028394;28;20046;-78
2023/03/29 01:18:37;;;;;;;5.00;1.95;;;;;;;;;;5027088;28;20103;-78
2023/03/29 01:21:19;;;;;;;3.40;1.60;;;;;;;;;;5024564;28;20531;-78
2023/03/29 01:24:34;;;;;;;4.97;1.90;;;;;;;;;;5025899;28;20125;-77
2023/03/29 01:27:05;;;;;;;3.35;1.50;;;;;;;;;;5014588;28;20134;-78
2023/03/29 01:29:36;;;;;;;3.60;1.88;;;;;;;;;;5014151;28;20509;-77
2023/03/29 01:32:08;;;;;;;4.75;1.77;;;;;;;;;;5014155;28;20077;-77
2023/03/29 01:34:41;;;;;;;4.47;2.35;;;;;;;;;;5028651;28;20441;-77
2023/03/29 01:37:14;;;;;;;3.63;1.90;;;;;;;;;;5018098;28;20517;-77
2023/03/29 01:39:41;;;;;;;5.97;2.50;;;;;;;;;;5032387;28;20558;-79
2023/03/29 01:42:20;;;;;;;5.05;2.60;;;;;;;;;;5034088;28;20041;-77
2023/03/29 01:44:55;;;;;;;6.28;2.72;;;;;;;;;;5022170;28;20045;-77
2023/03/29 01:47:27;;;;;;;6.03;2.95;;;;;;;;;;5018015;28;20049;-78
2023/03/29 01:50:04;;;;;;;6.40;2.70;;;;;;;;;;5032811;28;20084;-77
2023/03/29 01:52:36;;;;;;;5.60;2.97;;;;;;;;;;5019424;28;20054;-77
2023/03/29 01:55:09;;;;;;;6.20;3.30;;;;;;;;;;5035763;28;20128;-77
2023/03/29 01:57:38;;;;;;;6.15;2.97;;;;;;;;;;5039946;28;20081;-77
2023/03/29 02:00:09;;;;;;;5.82;3.20;;;;;;;;;;5022088;28;20081;-78
2023/03/29 02:02:38;;;;;;;4.80;2.30;;;;;;;;;;5018430;28;20062;-78
2023/03/29 02:05:08;;;;;;;5.00;2.40;;;;;;;;;;5037662;28;20045;-77
2023/03/29 02:07:37;;;;;;;4.53;2.40;;;;;;;;;;5043468;28;20107;-78
2023/03/29 02:10:05;;;;;;;5.43;2.38;;;;;;;;;;5025188;28;20065;-78
2023/03/29 02:12:32;;;;;;;3.90;1.90;;;;;;;;;;5019629;28;20057;-78
2023/03/29 02:14:59;;;;;;;3.83;1.85;;;;;;;;;;5031166;28;20085;-78
2023/03/29 02:17:28;;;;;;;3.40;1.83;;;;;;;;;;5038346;28;20046;-76
2023/03/29 02:19:59;;;;;;;3.28;1.60;;;;;;;;;;5031998;28;20077;-76
2023/03/29 02:22:33;;;;;;;4.05;1.80;;;;;;;;;;5033036;28;20073;-78
2023/03/29 02:25:03;;;;;;;4.05;1.60;;;;;;;;;;5025401;28;20046;-77
2023/03/29 02:27:30;;;;;;;3.15;1.55;;;;;;;;;;5017782;28;20057;-77
2023/03/29 02:29:57;;;;;;;4.72;2.63;;;;;;;;;;5037081;28;20132;-77
2023/03/29 02:32:33;;;;;;;3.95;1.60;;;;;;;;;;5036626;28;20468;-77
2023/03/29 02:35:05;;;;;;;4.97;2.10;;;;;;;;;;5016622;28;20088;-78
2023/03/29 02:37:35;;;;;;;3.15;1.50;;;;;;;;;;5016427;28;20057;-76
2023/03/29 02:40:11;;;;;;;3.28;1.77;;;;;;;;;;5016552;28;20042;-77
2023/03/29 02:42:39;;;;;;;2.92;1.23;;;;;;;;;;5027954;28;20077;-77
2023/03/29 02:45:08;;;;;;;2.88;1.15;;;;;;;;;;5018318;28;20046;-78
2023/03/29 02:47:39;;;;;;;2.88;1.40;;;;;;;;;;5036709;28;20052;-78
2023/03/29 02:50:07;;;;;;;;;;;;;;;;;;5036782;28;20601;-78
2023/03/29 02:52:38;;;;;;;3.15;1.40;;;;;;;;;;5035339;28;19921;-77
2023/03/29 02:55:10;;;;;;;3.95;1.48;;;;;;;;;;5036854;28;20053;-78
2023/03/29 02:57:38;;;;;;;3.95;1.40;;;;;;;;;;5025938;28;20053;-78
2023/03/29 03:00:08;;;;;;;2.92;1.25;;;;;;;;;;5016802;28;20081;-78
2023/03/29 03:02:37;;;;;;;2.75;1.30;;;;;;;;;;5034370;28;20051;-76
2023/03/29 03:05:05;;;;;;;4.30;1.65;;;;;;;;;;5036907;28;20045;-77
2023/03/29 03:07:32;;;;;;;3.08;1.25;;;;;;;;;;5024627;28;20041;-78
2023/03/29 03:09:59;;;;;;;3.45;1.30;;;;;;;;;;5015487;28;20058;-79
2023/03/29 03:12:26;;;;;;;2.50;1.17;;;;;;;;;;5028800;28;20073;-77
2023/03/29 03:14:53;;;;;;;3.38;1.50;;;;;;;;;;5033742;28;20046;-77
2023/03/29 03:17:21;;;;;;;2.95;1.33;;;;;;;;;;5020123;28;20065;-77
2023/03/29 03:19:49;;;;;;;3.90;1.23;;;;;;;;;;5022009;28;20412;-77
2023/03/29 03:22:16;;;;;;;3.20;1.40;;;;;;;;;;5020362;28;20085;-78
2023/03/29 03:24:44;;;;;;;2.78;1.48;;;;;;;;;;5013860;28;20132;-79
2023/03/29 03:27:12;;;;;;;3.47;1.45;;;;;;;;;;5024420;28;20053;-76
2023/03/29 03:29:40;;;;;;;4.05;1.95;;;;;;;;;;5024939;28;20046;-77
2023/03/29 03:32:07;;;;;;;2.65;1.40;;;;;;;;;;5026648;28;20046;-77
2023/03/29 03:34:34;;;;;;;3.00;1.40;;;;;;;;;;5016740;28;20053;-78
2023/03/29 03:37:02;;;;;;;2.90;1.40;;;;;;;;;;5023757;28;20053;-77
2023/03/29 03:39:29;;;;;;;3.83;1.38;;;;;;;;;;5033866;28;20048;-77
2023/03/29 03:41:56;;;;;;;3.15;1.50;;;;;;;;;;5022730;28;20129;-77
2023/03/29 03:44:22;;;;;;;3.40;1.50;;;;;;;;;;5033270;28;20103;-77
2023/03/29 03:46:49;;;;;;;3.55;1.65;;;;;;;;;;5035586;28;20046;-77
2023/03/29 03:49:16;;;;;;;3.47;1.35;;;;;;;;;;5016051;28;20422;-77
2023/03/29 03:51:44;;;;;;;3.58;1.40;;;;;;;;;;5027615;28;20416;-77
2023/03/29 03:54:12;;;;;;;3.53;1.40;;;;;;;;;;5013622;28;20045;-77
2023/03/29 03:56:39;;;;;;;3.38;1.40;;;;;;;;;;5014543;28;20078;-77
2023/03/29 03:59:06;;;;;;;3.08;1.58;;;;;;;;;;5034985;28;20426;-77
2023/03/29 04:01:34;;;;;;;5.65;1.52;;;;;;;;;;5032470;28;20046;-77
2023/03/29 04:04:00;;;;;;;4.57;1.48;;;;;;;;;;5013603;28;20049;-76
2023/03/29 04:06:29;;;;;;;5.15;1.60;;;;;;;;;;5014946;28;20496;-77
2023/03/29 04:08:56;;;;;;;3.30;1.55;;;;;;;;;;5014012;28;20460;-76
2023/03/29 04:11:24;;;;;;;5.50;2.00;;;;;;;;;;5021678;28;20076;-77
2023/03/29 04:13:51;;;;;;;4.45;1.60;;;;;;;;;;5031163;28;20056;-77
2023/03/29 04:16:18;;;;;;;3.13;1.55;;;;;;;;;;5025606;28;20064;-77
2023/03/29 04:18:44;;;;;;;2.80;1.52;;;;;;;;;;5018536;28;20117;-76
2023/03/29 04:21:11;;;;;;;4.30;1.52;;;;;;;;;;5023059;28;20046;-76
2023/03/29 04:23:38;;;;;;;4.18;1.67;;;;;;;;;;5040538;28;20056;-76
2023/03/29 04:26:05;;;;;;;4.20;1.88;;;;;;;;;;5032252;28;20049;-77
2023/03/29 04:28:33;;;;;;;3.65;1.60;;;;;;;;;;5013417;28;20049;-77
2023/03/29 04:31:00;;;;;;;3.42;1.60;;;;;;;;;;5014717;28;20153;-77
2023/03/29 04:33:28;;;;;;;4.60;1.52;;;;;;;;;;5029013;28;20112;-77
2023/03/29 04:35:54;;;;;;;3.65;1.48;;;;;;;;;;5030352;28;20041;-77
2023/03/29 04:38:22;;;;;;;4.22;1.80;;;;;;;;;;5012468;28;20235;-77
2023/03/29 04:40:48;;;;;;;3.85;2.15;;;;;;;;;;5012274;28;20053;-77
2023/03/29 04:43:15;;;;;;;2.33;1.13;;;;;;;;;;5019900;28;20042;-77
2023/03/29 04:45:43;;;;;;;4.22;1.67;;;;;;;;;;5012273;28;20049;-77
2023/03/29 04:48:10;;;;;;;4.30;1.90;;;;;;;;;;5030492;28;20153;-78
2023/03/29 04:50:37;;;;;;;4.07;1.80;;;;;;;;;;5030594;28;20054;-77
2023/03/29 04:53:03;;;;;;;5.07;1.90;;;;;;;;;;5040940;28;20069;-76
2023/03/29 04:55:30;;;;;;;5.65;2.30;;;;;;;;;;5028427;28;20077;-78
2023/03/29 04:57:57;;;;;;;5.30;2.17;;;;;;;;;;5032175;28;20089;-77
2023/03/29 05:00:26;;;;;;;5.38;2.50;;;;;;;;;;5038231;28;20137;-78
2023/03/29 05:02:54;;;;;;;7.28;3.10;;;;;;;;;;5033257;28;20056;-77
2023/03/29 05:05:21;;;;;;;6.97;2.67;;;;;;;;;;5021219;28;20097;-78
2023/03/29 05:07:47;;;;;;;5.68;2.70;;;;;;;;;;5041578;28;20049;-77
2023/03/29 05:10:14;;;;;;;6.90;2.95;;;;;;;;;;5044097;28;20042;-77
2023/03/29 05:12:41;;;;;;;5.60;2.25;;;;;;;;;;5026806;28;20041;-78
2023/03/29 05:15:09;;;;;;;5.07;1.70;;;;;;;;;;5027952;28;20137;-78
2023/03/29 05:17:36;;;;;;;4.95;1.60;;;;;;;;;;5038933;28;20688;-78
2023/03/29 05:20:08;;;;;;;3.10;1.50;;;;;;;;;;5034532;28;20104;-78
2023/03/29 05:22:37;;;;;;;3.63;1.40;;;;;;;;;;5039071;28;20057;-78
2023/03/29 05:25:04;;;;;;;5.57;1.65;;;;;;;;;;5027307;28;20413;-78
2023/03/29 05:27:30;;;;;;;3.38;1.20;;;;;;;;;;5019085;28;20519;-78
2023/03/29 05:29:57;;;;;;;3.75;1.27;;;;;;;;;;5022652;28;20061;-78
2023/03/29 05:32:24;;;;;;;4.28;1.50;;;;;;;;;;5020232;28;20129;-78
2023/03/29 05:34:51;;;;;;;4.50;1.40;;;;;;;;;;5028119;28;20065;-78
2023/03/29 05:37:19;;;;;;;4.28;1.30;;;;;;;;;;5039728;28;20088;-77
2023/03/29 05:39:47;;;;;;;4.90;1.15;;;;;;;;;;5039202;28;20073;-78
2023/03/29 05:42:15;;;;;;;3.38;1.10;;;;;;;;;;5020177;28;20053;-78
2023/03/29 05:44:41;;;;;;;3.88;1.48;;;;;;;;;;5025441;28;20420;-78
2023/03/29 05:47:08;;;;;;;3.67;1.35;;;;;;;;;;5036355;28;20051;-79
2023/03/29 05:49:36;;;;;;;2.80;1.27;;;;;;;;;;5037618;28;20137;-78
2023/03/29 05:52:05;;;;;;;4.35;1.33;;;;;;;;;;5038859;28;20041;-79
2023/03/29 05:54:33;;;;;;;1.92;1.00;;;;;;;;;;5033748;28;20049;-79
2023/03/29 05:57:00;;;;;;;3.65;1.20;;;;;;;;;;5020326;28;20417;-79
2023/03/29 05:59:28;;;;;;;3.97;1.33;;;;;;;;;;5018413;28;20081;-79
2023/03/29 06:01:55;;;;;;;4.88;1.38;;;;;;;;;;5032318;28;20052;-78
2023/03/29 06:04:23;;;;;;;3.17;1.42;;;;;;;;;;5030610;28;20176;-79
2023/03/29 06:06:49;;;;;;;4.65;1.40;;;;;;;;;;5039226;28;20117;-78
2023/03/29 06:09:16;;;;;;;5.35;1.48;;;;;;;;;;5040850;28;20046;-78
2023/03/29 06:11:45;;;;;;;3.92;1.13;;;;;;;;;;5020296;28;20140;-78
2023/03/29 06:14:12;;;;;;;4.32;1.27;;;;;;;;;;5023804;28;20049;-78
2023/03/29 06:16:39;;;;;;;3.65;1.40;;;;;;;;;;5029452;28;20582;-78
2023/03/29 06:19:06;;;;;;;2.85;0.85;;;;;;;;;;5033698;28;20042;-79
2023/03/29 06:21:33;;;;;;;2.97;1.10;;;;;;;;;;5023005;28;20514;-79
2023/03/29 06:23:59;;;;;;;2.38;1.00;;;;;;;;;;5035080;28;20049;-78
2023/03/29 06:26:27;;;;;;;2.75;1.02;;;;;;;;;;5039169;28;20101;-78
2023/03/29 06:28:56;;;;;;;2.50;1.13;;;;;;;;;;5036195;28;20050;-78
2023/03/29 06:31:23;;;;;;;2.38;1.20;;;;;;;;;;5018580;28;20050;-78
2023/03/29 06:33:49;;;;;;;3.47;1.40;;;;;;;;;;5023453;28;20194;-77
2023/03/29 06:36:17;;;;;;;2.15;1.20;;;;;;;;;;5035287;28;20091;-77
2023/03/29 06:38:44;;;;;;;3.55;1.45;;;;;;;;;;5036129;28;20519;-78
2023/03/29 06:41:11;;;;;;;5.97;1.52;;;;;;;;;;5018133;28;20416;-78
2023/03/29 06:43:38;;;;;;;5.22;1.48;;;;;;;;;;5024449;28;20038;-77
2023/03/29 06:46:10;;;;;;;5.75;1.50;;;;;;;;;;5032667;28;20111;-78
2023/03/29 06:48:37;;;;;;;2.92;1.27;;;;;;;;;;5034678;28;20049;-78
2023/03/29 06:51:04;;;;;;;3.58;1.38;;;;;;;;;;5026186;28;20077;-77
2023/03/29 06:53:31;;;;;;;5.05;1.15;;;;;;;;;;5022633;28;20449;-76
2023/03/29 06:55:58;;;;;;;2.53;1.00;;;;;;;;;;5033106;28;20072;-79
2023/03/29 06:58:25;;;;;;;3.15;1.23;;;;;;;;;;5026919;28;20050;-78
2023/03/29 07:00:52;;;;;;;4.18;1.30;;;;;;;;;;5015863;28;20441;-77
2023/03/29 07:03:22;;;;;;;3.78;1.30;;;;;;;;;;5026522;28;20042;-77
2023/03/29 07:05:50;;;;;;;3.65;1.63;;;;;;;;;;5033839;28;20545;-77
2023/03/29 07:08:19;;;;;;;4.25;1.75;;;;;;;;;;5029222;28;20136;-76
2023/03/29 07:10:47;;;;;;;4.70;1.50;;;;;;;;;;5016584;28;20425;-77
2023/03/29 07:13:16;;;;;;;2.15;1.00;;;;;;;;;;5015854;28;20053;-79
2023/03/29 07:15:43;;;;;;;5.28;1.67;;;;;;;;;;5021298;28;20056;-77
2023/03/29 07:18:11;;;;;;;4.38;1.40;;;;;;;;;;5035685;28;20053;-77
2023/03/29 07:20:41;;;;;;;4.55;1.63;;;;;;;;;;5029879;28;20042;-77
2023/03/29 07:23:08;;;;;;;5.22;1.20;;;;;;;;;;5015656;28;20089;-78
2023/03/29 07:25:36;;;;;;;4.80;1.30;;;;;;;;;;5031396;28;20068;-78
2023/03/29 07:28:03;;;;;;;2.60;1.50;;;;;;;;;;5029085;28;20132;-78
2023/03/29 07:30:32;;;;;;;3.47;1.40;;;;;;;;;;5036445;28;20060;-77
2023/03/29 07:32:59;;;;;;;2.25;1.05;;;;;;;;;;5019579;28;20058;-78
2023/03/29 07:35:26;;;;;;;3.70;1.63;;;;;;;;;;5017466;28;20066;-78
2023/03/29 07:37:55;;;;;;;2.92;1.10;;;;;;;;;;5018346;28;20073;-78
2023/03/29 07:40:22;;;;;;;2.78;1.30;;;;;;;;;;5018627;28;20826;-78
2023/03/29 07:42:51;;;;;;;3.58;1.13;;;;;;;;;;5015757;28;20049;-77
2023/03/29 07:45:19;;;;;;;3.97;1.15;;;;;;;;;;5020150;28;20065;-79
2023/03/29 07:47:49;;;;;;;3.30;1.20;;;;;;;;;;5019566;28;20092;-80
2023/03/29 07:50:16;;;;;;;2.33;1.20;;;;;;;;;;5020145;28;20164;-78
2023/03/29 07:52:44;;;;;;;2.88;1.20;;;;;;;;;;5026695;28;20064;-78
2023/03/29 07:55:15;;;;;;;5.72;1.17;;;;;;;;;;5014195;28;20056;-79
2023/03/29 07:57:43;;;;;;;3.15;1.33;;;;;;;;;;5024019;28;20088;-78
2023/03/29 08:00:13;;;;;;;3.38;1.42;;;;;;;;;;5031342;28;20071;-78
2023/03/29 08:02:40;;;;;;;3.63;1.02;;;;;;;;;;5028162;28;20041;-77
2023/03/29 08:05:08;;;;;;;3.85;1.38;;;;;;;;;;5030696;28;20047;-77
2023/03/29 08:07:35;;;;;;;2.15;1.05;;;;;;;;;;5032544;28;20137;-77
2023/03/29 08:10:02;;;;;;;4.13;1.20;;;;;;;;;;5020566;28;20416;-76
2023/03/29 08:12:30;;;;;;;3.13;1.00;;;;;;;;;;5012992;28;20133;-78
2023/03/29 08:14:57;;;;;;;4.32;1.13;;;;;;;;;;5018161;28;20720;-77
2023/03/29 08:17:24;;;;;;;2.50;1.30;;;;;;;;;;5024508;28;20500;-77
2023/03/29 08:19:51;;;;;;;5.35;1.80;;;;;;;;;;5013382;28;20077;-77
2023/03/29 08:22:17;;;;;;;2.67;1.20;;;;;;;;;;5015079;28;20084;-77
2023/03/29 08:24:45;;;;;;;4.18;1.30;;;;;;;;;;5026381;28;20515;-76
2023/03/29 08:27:11;;;;;;;4.05;1.42;;;;;;;;;;5026029;28;20045;-81
2023/03/29 08:29:40;;;;;;;3.55;1.10;;;;;;;;;;5027215;28;20125;-76
2023/03/29 08:32:07;;;;;;;4.22;1.50;;;;;;;;;;5038806;28;20124;-77
2023/03/29 08:34:34;;;;;;;2.83;1.30;;;;;;;;;;5037813;28;20459;-76
2023/03/29 08:37:01;;;;;;;3.20;1.20;;;;;;;;;;5027939;28;20050;-76
2023/03/29 08:39:28;;;;;;;3.03;1.40;;;;;;;;;;5034439;28;20045;-78
2023/03/29 08:42:07;;;;;;;4.47;1.58;;;;;;;;;;5043303;28;20050;-77
2023/03/29 08:44:58;;;;;;;4.40;1.33;;;;;;;;;;5038003;28;20052;-78
2023/03/29 08:47:34;;;;;;;2.35;1.08;;;;;;;;;;5028912;28;20041;-80
2023/03/29 08:50:09;;;;;;;5.88;1.33;;;;;;;;;;5026851;28;20157;-80
2023/03/29 08:52:48;;;;;;;3.88;1.33;;;;;;;;;;5020979;28;20053;-85
2023/03/29 08:55:24;;;;;;;3.85;1.48;;;;;;;;;;5021874;28;20156;-80
2023/03/29 08:57:58;;;;;;;3.03;1.40;;;;;;;;;;5024927;28;20053;-77
2023/03/29 09:00:43;;;;;;;4.28;1.58;;;;;;;;;;5018316;28;20046;-78
2023/03/29 09:03:19;;;;;;;3.72;1.20;;;;;;;;;;5013906;28;20046;-78
2023/03/29 09:05:48;;;;;;;2.83;1.30;;;;;;;;;;5012875;28;20457;-78
2023/03/29 09:08:17;;;;;;;5.32;1.50;;;;;;;;;;5013959;28;20081;-78
2023/03/29 09:10:47;;;;;;;3.33;1.27;;;;;;;;;;5012712;28;20090;-77
2023/03/29 09:13:30;;;;;;;2.17;1.08;;;;;;;;;;5020076;28;20091;-79
2023/03/29 09:16:08;;;;;;;3.85;1.20;;;;;;;;;;5032496;28;20062;-77
2023/03/29 09:18:45;;;;;;;4.88;1.30;;;;;;;;;;5018450;28;20535;-78
2023/03/29 09:21:19;;;;;;;3.33;1.35;;;;;;;;;;5033146;28;20321;-78
2023/03/29 09:24:08;;;;;;;4.85;1.40;;;;;;;;;;5031490;28;20540;-79
2023/03/29 09:26:41;;;;;;;5.07;1.33;;;;;;;;;;5028508;28;20057;-78
2023/03/29 09:29:25;;;;;;;4.43;1.20;;;;;;;;;;5033035;28;20050;-76
2023/03/29 09:31:55;;;;;;;3.78;1.40;;;;;;;;;;5019661;28;20064;-79
2023/03/29 09:34:28;;;;;;;2.42;1.00;;;;;;;;;;5023987;28;20128;-76
2023/03/29 09:36:59;;;;;;;4.47;1.50;;;;;;;;;;5018143;28;20092;-77
2023/03/29 09:39:27;;;;;;;3.10;1.10;;;;;;;;;;5020709;28;20077;-78
2023/03/29 09:41:58;;;;;;;4.65;1.48;;;;;;;;;;5015877;28;20095;-79
2023/03/29 09:44:30;;;;;;;4.22;1.30;;;;;;;;;;5015425;28;20042;-79
2023/03/29 09:47:03;;;;;;;5.47;1.45;;;;;;;;;;5018529;28;20551;-79
2023/03/29 09:49:32;;;;;;;4.32;1.40;;;;;;;;;;5017874;28;20090;-78
2023/03/29 09:52:03;;;;;;;4.78;1.15;;;;;;;;;;5016624;28;20068;-78
2023/03/29 09:54:30;;;;;;;;;;;;;;;;;;5014710;28;20054;-77
2023/03/29 09:56:58;;;;;;;2.72;1.00;;;;;;;;;;5013644;28;19949;-78
2023/03/29 09:59:25;;;;;;;3.33;1.50;;;;;;;;;;5015882;28;20125;-78
2023/03/29 10:01:52;;;;;;;3.58;1.23;;;;;;;;;;5019528;28;20047;-79
2023/03/29 10:04:21;;;;;;;3.13;1.30;;;;;;;;;;5021057;28;20081;-77
2023/03/29 10:06:49;;;;;;;5.03;1.48;;;;;;;;;;5022127;28;20042;-76
2023/03/29 10:09:19;;;;;;;4.75;1.23;;;;;;;;;;5020805;28;20720;-78
2023/03/29 10:11:47;;;;;;;6.73;1.43;;;;;;;;;;5020684;28;20073;-78
2023/03/29 10:14:17;;;;;;;4.20;1.10;;;;;;;;;;5028182;28;20058;-77
2023/03/29 10:16:46;;;;;;;2.88;1.17;;;;;;;;;;5028433;28;20069;-78
2023/03/29 10:19:19;;;;;;;6.22;1.50;;;;;;;;;;5023345;28;20052;-77
2023/03/29 10:21:49;;;;;;;2.95;1.30;;;;;;;;;;5012751;28;20132;-78
2023/03/29 10:24:19;;;;;;;5.07;1.70;;;;;;;;;;5027503;28;20172;-78
2023/03/29 10:26:46;;;;;;;3.70;1.23;;;;;;;;;;5021489;28;20073;-76
2023/03/29 10:29:14;;;;;;;3.08;1.27;;;;;;;;;;5015713;28;20492;-78
2023/03/29 10:31:42;;;;;;;2.65;1.08;;;;;;;;;;5013644;28;20108;-78
2023/03/29 10:34:12;;;;;;;4.65;1.55;;;;;;;;;;5012841;28;20046;-78
2023/03/29 10:36:41;;;;;;;4.13;1.20;;;;;;;;;;5017559;28;20064;-78
2023/03/29 10:39:15;;;;;;;4.10;1.40;;;;;;;;;;5015524;28;20554;-78
2023/03/29 10:41:43;;;;;;;2.88;1.27;;;;;;;;;;5025539;28;20124;-78
2023/03/29 10:44:26;;;;;;;3.22;1.35;;;;;;;;;;5038022;28;20050;-78
2023/03/29 10:46:53;;;;;;;3.50;1.45;;;;;;;;;;5040538;28;20053;-79
2023/03/29 10:49:22;;;;;;;5.10;1.70;;;;;;;;;;5039940;28;20084;-79
2023/03/29 10:51:50;;;;;;;3.35;1.15;;;;;;;;;;5039336;28;20511;-78
2023/03/29 10:54:22;;;;;;;2.47;1.77;;;;;;;;;;5031225;28;20050;-79
2023/03/29 10:56:52;;;;;;;4.63;1.40;;;;;;;;;;5024776;28;20056;-79
2023/03/29 10:59:30;;;;;;;4.53;1.83;;;;;;;;;;5033163;28;20069;-79
2023/03/29 11:02:38;;;;;;;3.42;1.30;;;;;;;;;;5036393;28;20046;-80
2023/03/29 11:05:18;;;;;;;3.60;1.50;;;;;;;;;;5038070;28;20096;-78
2023/03/29 11:08:00;;;;;;;3.80;1.30;;;;;;;;;;5038919;28;20045;-78
2023/03/29 11:10:41;;;;;;;5.32;1.65;;;;;;;;;;5038097;28;20454;-79
2023/03/29 11:13:17;;;;;;;5.32;1.52;;;;;;;;;;5024179;28;20042;-77
2023/03/29 11:15:53;;;;;;;4.35;1.40;;;;;;;;;;5020317;28;20045;-78
2023/03/29 11:18:43;;;;;;;3.08;1.30;;;;;;;;;;5019776;28;20489;-78
2023/03/29 11:21:19;;;;;;;3.95;1.48;;;;;;;;;;5030476;28;20160;-78
2023/03/29 11:23:54;;;;;;;5.25;1.50;;;;;;;;;;5022807;28;20125;-77
2023/03/29 11:26:25;;;;;;;3.85;1.40;;;;;;;;;;5037145;28;20118;-78
2023/03/29 11:28:57;;;;;;;4.45;1.83;;;;;;;;;;5018018;28;20111;-78
2023/03/29 11:31:36;;;;;;;3.03;1.38;;;;;;;;;;5027901;28;20100;-78
2023/03/29 11:34:16;;;;;;;4.88;1.60;;;;;;;;;;5030956;28;20088;-77
2023/03/29 11:36:49;;;;;;;3.90;1.45;;;;;;;;;;5030356;28;20041;-78
2023/03/29 11:39:28;;;;;;;3.45;1.23;;;;;;;;;;5032165;28;20076;-80
2023/03/29 11:42:03;;;;;;;3.70;1.50;;;;;;;;;;5031831;28;20050;-77
2023/03/29 11:44:31;;;;;;;4.10;1.70;;;;;;;;;;5022498;28;20085;-76
2023/03/29 11:47:01;;;;;;;4.35;1.42;;;;;;;;;;5024942;28;20046;-78
2023/03/29 11:49:32;;;;;;;4.82;1.20;;;;;;;;;;5024775;28;20137;-78
2023/03/29 11:52:06;;;;;;;4.95;1.40;;;;;;;;;;5018710;28;20050;-78
2023/03/29 11:54:39;;;;;;;3.40;1.23;;;;;;;;;;5024265;28;20041;-80
2023/03/29 11:57:15;;;;;;;3.80;1.30;;;;;;;;;;5018441;28;20528;-79
2023/03/29 11:59:51;;;;;;;4.32;1.50;;;;;;;;;;5016132;28;20050;-78
2023/03/29 12:02:25;;;;;;;6.63;1.60;;;;;;;;;;5021041;28;20045;-79
2023/03/29 12:05:00;;;;;;;3.80;1.33;;;;;;;;;;5025660;28;20533;-78
2023/03/29 12:07:32;;;;;;;3.67;1.17;;;;;;;;;;5022952;28;20042;-77
2023/03/29 12:10:02;;;;;;;3.15;1.10;;;;;;;;;;5021302;28;20068;-78
2023/03/29 12:12:44;;;;;;;4.32;1.17;;;;;;;;;;5030640;28;20057;-77
2023/03/29 12:15:18;;;;;;;3.22;1.13;;;;;;;;;;5039041;28;20065;-79
2023/03/29 12:17:56;;;;;;;3.95;1.20;;;;;;;;;;5027954;28;20052;-79
2023/03/29 12:20:26;;;;;;;2.55;1.13;;;;;;;;;;5021019;28;20607;-78
2023/03/29 12:22:54;;;;;;;5.43;1.48;;;;;;;;;;5028828;28;20389;-77
2023/03/29 12:25:30;;;;;;;3.63;1.30;;;;;;;;;;5021077;28;20056;-79
2023/03/29 12:28:14;;;;;;;4.85;1.50;;;;;;;;;;5039608;28;20041;-78
2023/03/29 12:30:54;;;;;;;3.47;1.50;;;;;;;;;;5033989;28;20045;-78
2023/03/29 12:33:53;;;;;;;3.75;1.83;;;;;;;;;;5031843;28;20433;-77
2023/03/29 12:36:40;;;;;;;3.58;1.45;;;;;;;;;;5031248;28;20547;-78
2023/03/29 12:39:13;;;;;;;4.28;1.30;;;;;;;;;;5029593;28;20050;-79
2023/03/29 12:41:43;;;;;;;4.30;1.60;;;;;;;;;;5024300;28;20072;-79
2023/03/29 12:44:14;;;;;;;6.00;1.48;;;;;;;;;;5013079;28;20501;-77
2023/03/29 12:46:41;;;;;;;6.53;1.40;;;;;;;;;;5021605;28;20049;-79
2023/03/29 12:49:14;;;;;;;4.88;1.40;;;;;;;;;;5024467;28;20046;-78
2023/03/29 12:51:42;;;;;;;6.28;1.92;;;;;;;;;;5017070;28;20049;-78
2023/03/29 12:54:14;;;;;;;4.32;1.48;;;;;;;;;;5020977;28;20054;-78
2023/03/29 12:56:53;;;;;;;6.55;1.30;;;;;;;;;;5013678;28;20045;-79
2023/03/29 12:59:33;;;;;;;4.57;1.80;;;;;;;;;;5013248;28;20100;-79
2023/03/29 13:02:04;;;;;;;3.23;1.40;;;;;;;;;;5021191;28;21168;-79
2023/03/29 13:04:38;;;;;;;4.70;1.55;;;;;;;;;;5022212;28;20433;-78
2023/03/29 13:07:05;;;;;;;4.53;1.65;;;;;;;;;;5013363;28;20133;-79
2023/03/29 13:09:36;;;;;;;3.85;1.63;;;;;;;;;;5015237;28;20041;-76
2023/03/29 13:12:13;;;;;;;4.57;1.80;;;;;;;;;;5023239;28;20504;-78
2023/03/29 13:14:44;;;;;;;3.72;1.40;;;;;;;;;;5020927;28;20045;-77
2023/03/29 13:17:27;;;;;;;2.67;1.30;;;;;;;;;;5012419;28;20583;-78
2023/03/29 13:20:11;;;;;;;5.95;1.70;;;;;;;;;;5027572;28;20084;-78
2023/03/29 13:22:48;;;;;;;4.18;1.70;;;;;;;;;;5012268;28;20042;-78
2023/03/29 13:25:28;;;;;;;5.88;1.50;;;;;;;;;;5023223;28;20081;-77
2023/03/29 13:27:57;;;;;;;;;;;;;;;;;;5011104;28;20046;-77
2023/03/29 13:30:33;;;;;;;4.25;1.50;;;;;;;;;;5015217;28;19921;-78
2023/03/29 13:33:17;;;;;;;3.67;1.60;;;;;;;;;;5030974;28;20050;-77
2023/03/29 13:35:51;;;;;;;5.68;1.77;;;;;;;;;;5024000;28;20048;-79
2023/03/29 13:38:20;;;;;;;4.97;1.88;;;;;;;;;;5014163;28;20129;-78
2023/03/29 13:41:01;;;;;;;4.15;1.70;;;;;;;;;;5013434;28;20081;-77
2023/03/29 13:43:34;;;;;;;5.32;1.88;;;;;;;;;;5017302;28;20049;-78
2023/03/29 13:46:19;;;;;;;3.75;1.90;;;;;;;;;;5021712;28;20049;-79
2023/03/29 13:48:59;;;;;;;3.78;1.48;;;;;;;;;;5024208;28;20054;-78
2023/03/29 13:51:37;;;;;;;4.68;2.30;;;;;;;;;;5026473;28;20479;-77
2023/03/29 13:54:13;;;;;;;5.75;1.65;;;;;;;;;;5017106;28;20042;-78
2023/03/29 13:56:55;;;;;;;3.67;1.60;;;;;;;;;;5012945;28;20046;-78
2023/03/29 13:59:31;;;;;;;5.38;1.42;;;;;;;;;;5026207;28;20050;-78
2023/03/29 14:02:01;;;;;;;5.38;1.95;;;;;;;;;;5019237;28;20489;-79
2023/03/29 14:04:36;;;;;;;2.80;1.30;;;;;;;;;;5020050;28;20046;-78
2023/03/29 14:07:04;;;;;;;5.07;1.70;;;;;;;;;;5036118;28;20468;-78
2023/03/29 14:09:35;;;;;;;2.63;1.25;;;;;;;;;;5035161;28;20112;-78
2023/03/29 14:12:02;;;;;;;4.22;1.35;;;;;;;;;;5034831;28;20041;-78
2023/03/29 14:14:32;;;;;;;4.10;1.33;;;;;;;;;;5018509;28;20125;-79
2023/03/29 14:17:00;;;;;;;5.65;1.30;;;;;;;;;;5026742;28;20046;-77
2023/03/29 14:19:35;;;;;;;2.97;1.27;;;;;;;;;;5017019;28;20132;-79
2023/03/29 14:22:02;;;;;;;3.22;1.20;;;;;;;;;;5020673;28;20081;-80
2023/03/29 14:24:35;;;;;;;5.03;1.63;;;;;;;;;;5016455;28;20045;-78
2023/03/29 14:27:05;;;;;;;5.13;1.25;;;;;;;;;;5036611;28;20713;-78
2023/03/29 14:29:32;;;;;;;5.15;1.65;;;;;;;;;;5026488;28;20042;-81
2023/03/29 14:32:10;;;;;;;4.18;1.38;;;;;;;;;;5032263;28;20038;-82
2023/03/29 14:34:38;;;;;;;5.15;1.88;;;;;;;;;;5023793;28;20053;-78
2023/03/29 14:37:07;;;;;;;4.53;1.40;;;;;;;;;;5021059;28;20133;-78
2023/03/29 14:39:35;;;;;;;4.00;1.45;;;;;;;;;;5033706;28;20049;-78
2023/03/29 14:42:02;;;;;;;5.53;1.33;;;;;;;;;;5036605;28;20046;-77
2023/03/29 14:44:31;;;;;;;7.68;1.50;;;;;;;;;;5035716;28;20096;-78
2023/03/29 14:46:59;;;;;;;5.00;1.55;;;;;;;;;;5027476;28;20073;-78
2023/03/29 14:49:28;;;;;;;3.72;1.23;;;;;;;;;;5015531;28;20611;-79
2023/03/29 14:51:55;;;;;;;7.20;1.40;;;;;;;;;;5015781;28;20045;-80
2023/03/29 14:54:25;;;;;;;5.63;1.50;;;;;;;;;;5015152;28;20050;-79
2023/03/29 14:56:52;;;;;;;5.32;1.30;;;;;;;;;;5028195;28;20167;-79
2023/03/29 14:59:27;;;;;;;4.50;1.50;;;;;;;;;;5029746;28;20046;-79
2023/03/29 15:01:54;;;;;;;5.30;2.30;;;;;;;;;;5027840;28;20052;-78
2023/03/29 15:04:21;;;;;;;5.57;1.50;;;;;;;;;;5017321;28;20129;-81